Poplarville, Mississippi
Current Conditions -  °F | °C
As of 9:53 AM on Monday 22 Dec 2014 (Local Time) from KHBG Reporting Station
Haze Haze  
Wind Chill: 58°   Ceiling: 300
Heat Index: 58°   Visibility: 6mi
Dew Point: 57°   Wind: 6mph
Humidity: 97%   Direction: 110°ESE
Pressure: 29.86"   Gusts: NA
Location:  30.84°N, 89.53°W
Report Text: KHBG 221553Z AUTO 11005KT 6SM BR OVC003 14/14 A2986 RMK AO2 CIG 002V007 SLP110 T01440139
Loading
Personal Weather Stations






























Interactive Weather Map New forecast layout! Learn more

10-Day Weather Forecast

Advertisements
Track Severe Weather on mobile